Time;durP1;ratioP1;P1;durP2;ratioP2;P2;SDS_P1;SDS_P2;PMS_P1;PMS_P2;Temp;Humidity;BMP_temperature;BMP_pressure;BME280_temperature;BME280_humidity;BME280_pressure;Samples;Min_cycle;Max_cycle;Signal;HPM_P1;HPM_P2
2021/12/14 00:01:12;;;;;;;21.33;15.53;;;8.70;99.90;;;;;;5060397;28;20210;-41
2021/12/14 00:03:41;;;;;;;20.80;15.20;;;8.70;99.90;;;;;;5059628;28;20205;-41
2021/12/14 00:06:08;;;;;;;20.67;15.57;;;8.70;99.90;;;;;;5063753;28;20207;-40
2021/12/14 00:08:47;;;;;;;22.10;16.60;;;8.70;99.90;;;;;;5075464;28;20562;-41
2021/12/14 00:11:31;;;;;;;23.37;16.13;;;8.70;99.90;;;;;;5066622;28;20198;-43
2021/12/14 00:14:12;;;;;;;20.87;15.47;;;8.70;99.90;;;;;;5065657;28;20474;-42
2021/12/14 00:16:41;;;;;;;22.43;15.67;;;8.70;99.90;;;;;;5060304;28;20206;-41
2021/12/14 00:19:08;;;;;;;19.00;15.43;;;8.70;99.90;;;;;;5057326;28;20701;-42
2021/12/14 00:21:35;;;;;;;20.73;15.63;;;8.70;99.90;;;;;;5071314;28;20209;-45
2021/12/14 00:24:11;;;;;;;21.13;15.83;;;8.70;99.90;;;;;;5065570;28;20191;-41
2021/12/14 00:26:43;;;;;;;18.97;14.37;;;8.60;99.90;;;;;;5065387;28;20205;-41
2021/12/14 00:29:13;;;;;;;21.93;16.07;;;8.60;99.90;;;;;;5063250;28;20297;-41
2021/12/14 00:31:40;;;;;;;21.13;15.17;;;8.60;99.90;;;;;;5060866;28;20202;-41
2021/12/14 00:34:08;;;;;;;19.37;15.57;;;8.60;99.90;;;;;;5053895;28;21078;-41
2021/12/14 00:36:36;;;;;;;20.90;15.70;;;8.60;99.90;;;;;;5076579;28;20193;-42
2021/12/14 00:39:09;;;;;;;21.03;14.40;;;8.60;99.90;;;;;;5071454;28;20219;-41
2021/12/14 00:41:38;;;;;;;19.57;15.80;;;8.60;99.90;;;;;;5065190;28;20201;-43
2021/12/14 00:44:07;;;;;;;20.63;15.87;;;8.60;99.90;;;;;;5081214;28;20190;-41
2021/12/14 00:46:35;;;;;;;21.13;15.47;;;8.60;99.90;;;;;;5063728;28;20221;-42
2021/12/14 00:49:05;;;;;;;22.63;15.77;;;8.50;99.90;;;;;;5060139;28;20218;-41
2021/12/14 00:51:32;;;;;;;18.87;15.67;;;8.60;99.90;;;;;;5063027;28;20694;-42
2021/12/14 00:54:04;;;;;;;19.03;14.67;;;8.60;99.90;;;;;;5067611;28;20198;-41
2021/12/14 00:56:33;;;;;;;19.60;14.80;;;8.60;99.90;;;;;;5080088;28;20284;-43
2021/12/14 00:59:00;;;;;;;19.33;15.47;;;8.60;99.90;;;;;;5078766;28;20305;-43
2021/12/14 01:01:31;;;;;;;21.73;15.13;;;8.60;99.90;;;;;;5062794;28;20667;-44
2021/12/14 01:04:02;;;;;;;19.10;15.33;;;8.60;99.90;;;;;;5078170;28;20419;-42
2021/12/14 01:06:33;;;;;;;19.83;13.80;;;8.50;99.90;;;;;;5066535;28;20297;-42
2021/12/14 01:09:02;;;;;;;19.77;14.40;;;8.60;99.90;;;;;;5063553;28;20209;-45
2021/12/14 01:11:36;;;;;;;18.03;14.73;;;8.60;99.90;;;;;;5069460;28;20324;-41
2021/12/14 01:14:07;;;;;;;21.30;15.67;;;8.60;99.90;;;;;;5072654;28;20903;-43
2021/12/14 01:16:50;;;;;;;22.90;15.20;;;8.60;99.90;;;;;;5058049;28;20293;-41
2021/12/14 01:19:21;;;;;;;19.27;15.63;;;8.60;99.90;;;;;;5063403;28;20232;-41
2021/12/14 01:25:06;;;;;;;17.43;14.33;;;8.60;99.90;;;;;;5070701;28;20193;-43
2021/12/14 01:27:40;;;;;;;16.47;13.83;;;8.60;99.90;;;;;;5078988;28;20202;-41
2021/12/14 01:30:14;;;;;;;21.50;14.37;;;8.60;99.90;;;;;;5079944;28;20249;-42
2021/12/14 01:32:45;;;;;;;19.10;14.27;;;8.60;99.90;;;;;;5078568;28;20255;-42
2021/12/14 01:35:14;;;;;;;19.20;14.40;;;8.60;99.90;;;;;;5061587;28;20211;-41
2021/12/14 01:37:58;;;;;;;18.57;14.37;;;8.60;99.90;;;;;;5061680;28;20245;-41
2021/12/14 01:40:52;;;;;;;17.97;14.77;;;8.60;99.90;;;;;;5063902;28;20306;-41
2021/12/14 01:43:23;;;;;;;20.63;13.73;;;8.60;99.90;;;;;;5060915;28;20260;-44
2021/12/14 01:45:50;;;;;;;19.13;14.63;;;8.60;99.90;;;;;;5076249;28;20933;-42
2021/12/14 01:48:19;;;;;;;17.47;14.37;;;8.60;99.90;;;;;;5071283;28;20233;-40
2021/12/14 01:51:06;;;;;;;17.70;13.23;;;8.60;99.90;;;;;;5063689;28;20873;-40
2021/12/14 01:53:54;;;;;;;20.23;14.67;;;8.60;99.90;;;;;;5065840;28;20195;-43
2021/12/14 01:56:24;;;;;;;18.77;13.93;;;8.60;99.90;;;;;;5070533;28;20842;-42
2021/12/14 01:58:57;;;;;;;20.10;14.23;;;8.60;99.90;;;;;;5062507;28;20226;-41
2021/12/14 02:01:36;;;;;;;20.67;15.67;;;8.60;99.90;;;;;;5081260;28;20199;-43
2021/12/14 02:04:11;;;;;;;17.63;13.93;;;8.60;99.90;;;;;;5063298;28;20198;-40
2021/12/14 02:06:38;;;;;;;21.87;14.50;;;8.60;99.90;;;;;;5063270;28;20217;-42
2021/12/14 02:09:07;;;;;;;19.50;14.43;;;8.60;99.90;;;;;;5064775;28;20222;-41
2021/12/14 02:11:37;;;;;;;19.73;15.37;;;8.50;99.90;;;;;;5070504;28;20202;-42
2021/12/14 02:14:07;;;;;;;19.47;13.87;;;8.50;99.90;;;;;;5069779;28;20316;-40
2021/12/14 02:16:34;;;;;;;17.47;14.53;;;8.50;99.90;;;;;;5064842;28;20210;-40
2021/12/14 02:19:05;;;;;;;21.00;13.93;;;8.50;99.90;;;;;;5062857;28;20221;-41
2021/12/14 02:21:33;;;;;;;19.10;14.10;;;8.50;99.90;;;;;;5062611;28;20207;-41
2021/12/14 02:24:05;;;;;;;16.80;13.53;;;8.50;99.90;;;;;;5070195;28;20214;-42
2021/12/14 02:26:35;;;;;;;16.73;13.23;;;8.50;99.90;;;;;;5066492;28;20195;-40
2021/12/14 02:29:05;;;;;;;19.00;14.23;;;8.50;99.90;;;;;;5080592;28;20217;-44
2021/12/14 02:31:36;;;;;;;18.97;14.27;;;8.50;99.90;;;;;;5082375;28;20213;-40
2021/12/14 02:34:05;;;;;;;19.70;14.80;;;8.50;99.90;;;;;;5081828;28;20284;-40
2021/12/14 02:36:37;;;;;;;20.40;14.73;;;8.50;99.90;;;;;;5084122;28;20206;-41
2021/12/14 02:39:09;;;;;;;23.27;13.87;;;8.50;99.90;;;;;;5062811;28;20230;-41
2021/12/14 02:41:46;;;;;;;21.63;14.33;;;8.50;99.90;;;;;;5063627;28;20206;-40
2021/12/14 02:44:15;;;;;;;19.30;14.20;;;8.50;99.90;;;;;;5066981;28;20202;-42
2021/12/14 02:46:45;;;;;;;19.73;14.73;;;8.50;99.90;;;;;;5060469;28;20234;-41
2021/12/14 02:49:16;;;;;;;18.70;13.87;;;8.50;99.90;;;;;;5063811;28;20764;-42
2021/12/14 02:51:48;;;;;;;19.90;14.53;;;8.50;99.90;;;;;;5062365;28;20199;-40
2021/12/14 02:54:21;;;;;;;19.50;14.13;;;8.50;99.90;;;;;;5068291;28;20198;-40
2021/12/14 02:56:53;;;;;;;20.20;13.87;;;8.50;99.90;;;;;;5057155;28;20210;-41
2021/12/14 02:59:22;;;;;;;17.37;12.90;;;8.50;99.90;;;;;;5064694;28;20229;-43
2021/12/14 03:01:52;;;;;;;19.30;12.90;;;8.60;99.90;;;;;;5061209;28;20285;-42
2021/12/14 03:04:19;;;;;;;19.37;14.43;;;8.60;99.90;;;;;;5063703;28;20206;-41
2021/12/14 03:06:55;;;;;;;18.20;14.20;;;8.60;99.90;;;;;;5059593;28;20232;-41
2021/12/14 03:09:37;;;;;;;19.13;13.93;;;8.60;99.90;;;;;;5083308;28;20689;-42
2021/12/14 03:12:07;;;;;;;24.47;14.43;;;8.50;99.90;;;;;;5060592;28;20213;-41
2021/12/14 03:14:34;;;;;;;20.23;15.20;;;8.60;99.90;;;;;;5072074;28;20686;-41
2021/12/14 03:17:01;;;;;;;18.80;14.53;;;8.60;99.90;;;;;;5062828;28;20309;-41
2021/12/14 03:19:28;;;;;;;21.03;13.87;;;8.60;99.90;;;;;;5062971;28;20234;-40
2021/12/14 03:21:56;;;;;;;19.03;13.73;;;8.60;99.90;;;;;;5063195;28;20186;-40
2021/12/14 03:24:24;;;;;;;18.50;14.80;;;8.60;99.90;;;;;;5073210;28;20205;-45
2021/12/14 03:26:54;;;;;;;24.50;13.80;;;8.60;99.90;;;;;;5052511;28;20216;-40
2021/12/14 03:29:24;;;;;;;19.47;14.17;;;8.50;99.90;;;;;;5071895;28;20255;-41
2021/12/14 03:31:55;;;;;;;17.80;14.50;;;8.60;99.90;;;;;;5059339;28;20197;-40
2021/12/14 03:34:31;;;;;;;20.30;13.57;;;8.50;99.90;;;;;;5062835;28;20220;-45
2021/12/14 03:37:03;;;;;;;19.07;14.03;;;8.60;99.90;;;;;;5060952;28;20226;-40
2021/12/14 03:39:33;;;;;;;20.17;13.77;;;8.60;99.90;;;;;;5063763;28;20222;-41
2021/12/14 03:42:05;;;;;;;19.43;14.10;;;8.50;99.90;;;;;;5060891;28;20916;-44
2021/12/14 03:44:35;;;;;;;21.43;14.93;;;8.50;99.90;;;;;;5057155;28;20273;-40
2021/12/14 03:47:07;;;;;;;20.23;14.73;;;8.50;99.90;;;;;;5064328;28;20207;-41
2021/12/14 03:49:38;;;;;;;19.33;14.20;;;8.50;99.90;;;;;;5060650;28;20706;-43
2021/12/14 03:52:09;;;;;;;24.53;14.80;;;8.50;99.90;;;;;;5062799;28;20294;-42
2021/12/14 03:54:36;;;;;;;17.47;13.20;;;8.50;99.90;;;;;;5075740;28;20201;-41
2021/12/14 03:57:04;;;;;;;22.83;14.93;;;8.50;99.90;;;;;;5061109;28;20199;-43
2021/12/14 03:59:33;;;;;;;19.47;15.10;;;8.50;99.90;;;;;;5060233;28;20225;-42
2021/12/14 04:02:03;;;;;;;17.43;13.93;;;8.50;99.90;;;;;;5061922;28;20195;-40
2021/12/14 04:04:35;;;;;;;18.33;13.80;;;8.50;99.90;;;;;;5061695;28;20232;-41
2021/12/14 04:07:05;;;;;;;17.07;13.13;;;8.50;99.90;;;;;;5060456;28;20202;-40
2021/12/14 04:09:36;;;;;;;20.40;14.63;;;8.50;99.90;;;;;;5060859;28;20230;-41
2021/12/14 04:12:05;;;;;;;18.87;13.87;;;8.50;99.90;;;;;;5062327;28;20574;-40
2021/12/14 04:14:38;;;;;;;19.13;15.03;;;8.50;99.90;;;;;;5052704;28;20251;-42
2021/12/14 04:17:05;;;;;;;21.63;14.47;;;8.50;99.90;;;;;;5072473;28;20199;-45
2021/12/14 04:19:34;;;;;;;24.30;14.43;;;8.50;99.90;;;;;;5060411;28;20582;-39
2021/12/14 04:22:08;;;;;;;22.70;15.47;;;8.50;99.90;;;;;;5075853;28;20236;-42
2021/12/14 04:24:39;;;;;;;22.70;15.13;;;8.50;99.90;;;;;;5061647;28;20639;-40
2021/12/14 04:27:11;;;;;;;19.47;13.73;;;8.50;99.90;;;;;;5080827;28;20252;-40
2021/12/14 04:29:38;;;;;;;23.40;14.83;;;8.50;99.90;;;;;;5062453;28;20304;-39
2021/12/14 04:32:10;;;;;;;25.90;14.17;;;8.50;99.90;;;;;;5071304;28;20199;-42
2021/12/14 04:34:38;;;;;;;25.53;15.57;;;8.50;99.90;;;;;;5058313;28;20210;-40
2021/12/14 04:37:06;;;;;;;26.30;14.43;;;8.50;99.90;;;;;;5063625;28;20202;-39
2021/12/14 04:39:42;;;;;;;24.47;14.27;;;8.50;99.90;;;;;;5058717;28;20229;-40
2021/12/14 04:53:46;;;;;;;33.50;14.90;;;8.40;99.90;;;;;;5050102;28;20190;-43
2021/12/14 04:56:24;;;;;;;19.80;13.17;;;8.40;99.90;;;;;;5062866;28;20221;-41
2021/12/14 04:58:55;;;;;;;16.97;12.17;;;8.40;99.90;;;;;;5059684;28;20244;-40
2021/12/14 05:01:22;;;;;;;20.43;12.80;;;8.40;99.90;;;;;;5052817;28;20436;-42
2021/12/14 05:03:54;;;;;;;16.73;11.90;;;8.40;99.90;;;;;;5068148;28;20271;-45
2021/12/14 05:06:24;;;;;;;16.63;13.87;;;8.40;99.90;;;;;;5057045;28;20314;-40
2021/12/14 05:11:41;;;;;;;25.53;15.07;;;8.40;99.90;;;;;;5059068;28;20328;-41
2021/12/14 05:14:11;;;;;;;21.13;14.23;;;8.40;99.90;;;;;;5061721;28;20203;-41
2021/12/14 05:16:43;;;;;;;14.53;12.33;;;8.40;99.90;;;;;;5052703;28;20212;-40
2021/12/14 05:19:12;;;;;;;16.97;13.10;;;8.40;99.90;;;;;;5064710;28;20225;-40
2021/12/14 05:21:43;;;;;;;17.17;13.20;;;8.40;99.90;;;;;;5080461;28;20193;-42
2021/12/14 05:24:16;;;;;;;19.07;13.57;;;8.40;99.90;;;;;;5065173;28;20213;-41
2021/12/14 05:26:54;;;;;;;18.43;13.40;;;8.40;99.90;;;;;;5068600;28;20218;-41
2021/12/14 05:29:24;;;;;;;25.50;14.60;;;8.40;99.90;;;;;;5061206;28;20226;-41
2021/12/14 05:31:51;;;;;;;20.30;14.03;;;8.40;99.90;;;;;;5055438;28;20277;-40
2021/12/14 05:34:22;;;;;;;18.67;12.87;;;8.40;99.90;;;;;;5075137;28;20205;-44
2021/12/14 05:36:50;;;;;;;17.13;12.13;;;8.40;99.90;;;;;;5066327;28;20198;-41
2021/12/14 05:39:34;;;;;;;19.73;13.30;;;8.40;99.90;;;;;;5063355;28;20227;-41
2021/12/14 05:45:15;;;;;;;19.43;13.37;;;8.40;99.90;;;;;;5067005;28;20207;-40
2021/12/14 05:47:45;;;;;;;14.53;10.40;;;8.40;99.90;;;;;;5047194;28;20215;-43
2021/12/14 05:50:27;;;;;;;18.80;13.17;;;8.40;99.90;;;;;;5071853;28;20297;-41
2021/12/14 05:52:55;;;;;;;20.90;12.43;;;8.40;99.90;;;;;;5073599;28;20194;-40
2021/12/14 05:55:25;;;;;;;25.67;13.70;;;8.40;99.90;;;;;;5076330;28;20324;-40
2021/12/14 05:57:53;;;;;;;15.90;11.63;;;8.50;99.90;;;;;;5071335;28;20194;-41
2021/12/14 06:00:21;;;;;;;14.63;11.63;;;8.40;99.90;;;;;;5072483;28;20260;-41
2021/12/14 06:03:00;;;;;;;15.30;11.27;;;8.40;99.90;;;;;;5058993;28;20308;-40
2021/12/14 06:05:30;;;;;;;12.70;9.43;;;8.40;99.90;;;;;;5074002;28;20539;-41
2021/12/14 06:07:59;;;;;;;15.57;11.80;;;8.40;99.90;;;;;;5064973;28;20424;-42
2021/12/14 06:10:27;;;;;;;17.47;12.63;;;8.40;99.90;;;;;;5075332;28;20211;-40
2021/12/14 06:12:58;;;;;;;14.37;10.73;;;8.40;99.90;;;;;;5061703;28;20195;-40
2021/12/14 06:15:28;;;;;;;16.80;12.90;;;8.40;99.90;;;;;;5067612;28;20302;-42
2021/12/14 06:18:06;;;;;;;17.67;13.17;;;8.30;99.90;;;;;;5060216;28;20764;-41
2021/12/14 06:20:50;;;;;;;20.10;12.27;;;8.30;99.90;;;;;;5065794;28;20278;-40
2021/12/14 06:23:25;;;;;;;12.27;9.60;;;8.30;99.90;;;;;;5074811;28;20255;-40
2021/12/14 06:26:03;;;;;;;22.13;13.37;;;8.20;99.90;;;;;;5071402;28;20226;-40
2021/12/14 06:28:32;;;;;;;19.03;13.67;;;8.10;99.90;;;;;;5076136;28;20863;-41
2021/12/14 06:31:02;;;;;;;18.40;13.13;;;8.10;99.90;;;;;;5060651;28;20382;-40
2021/12/14 06:33:33;;;;;;;21.60;14.90;;;8.10;99.90;;;;;;5057719;28;20573;-39
2021/12/14 06:36:01;;;;;;;21.00;13.97;;;8.10;99.90;;;;;;5066705;28;20365;-39
2021/12/14 06:38:31;;;;;;;20.87;13.83;;;8.10;99.90;;;;;;5070548;28;20737;-40
2021/12/14 06:41:06;;;;;;;18.33;13.47;;;8.10;99.90;;;;;;5065086;28;20214;-41
2021/12/14 06:43:39;;;;;;;18.03;13.73;;;8.10;99.90;;;;;;5068384;28;20194;-41
2021/12/14 06:46:12;;;;;;;21.17;15.07;;;8.10;99.90;;;;;;5077575;28;20312;-40
2021/12/14 06:48:41;;;;;;;21.87;15.10;;;8.10;99.90;;;;;;5059809;28;20198;-42
2021/12/14 06:51:13;;;;;;;20.57;15.07;;;8.00;99.90;;;;;;5073110;28;20207;-41
2021/12/14 06:53:49;;;;;;;25.33;16.03;;;8.10;99.90;;;;;;5062259;28;20776;-40
2021/12/14 06:56:37;;;;;;;18.80;12.43;;;8.00;99.90;;;;;;5071219;28;20209;-44
2021/12/14 06:59:25;;;;;;;25.23;15.47;;;8.00;99.90;;;;;;5073828;28;20222;-40
2021/12/14 07:02:08;;;;;;;25.30;16.13;;;8.00;99.90;;;;;;5066350;28;20302;-40
2021/12/14 07:04:48;;;;;;;27.70;16.67;;;7.90;99.90;;;;;;5057534;28;20720;-41
2021/12/14 07:07:19;;;;;;;23.37;16.00;;;7.90;99.90;;;;;;5071980;28;20207;-43
2021/12/14 07:09:51;;;;;;;23.10;15.20;;;7.90;99.90;;;;;;5064080;28;20882;-40
2021/12/14 07:12:20;;;;;;;20.83;15.33;;;7.90;99.90;;;;;;5072275;28;20198;-43
2021/12/14 07:15:09;;;;;;;23.13;16.20;;;7.90;99.90;;;;;;5072603;28;20670;-40
2021/12/14 07:17:42;;;;;;;24.70;15.80;;;7.90;99.90;;;;;;5069744;28;20203;-42
2021/12/14 07:20:21;;;;;;;21.07;14.33;;;8.00;99.90;;;;;;5064076;28;20291;-40
2021/12/14 07:22:50;;;;;;;26.40;16.87;;;7.90;99.90;;;;;;5062416;28;20198;-40
2021/12/14 07:25:23;;;;;;;21.23;15.13;;;8.00;99.90;;;;;;5064369;28;20309;-39
2021/12/14 07:27:51;;;;;;;24.77;16.50;;;8.00;99.90;;;;;;5059412;28;20849;-42
2021/12/14 07:30:22;;;;;;;23.83;14.43;;;8.00;99.90;;;;;;5070330;28;20210;-42
2021/12/14 07:32:53;;;;;;;26.67;16.50;;;8.00;99.90;;;;;;5065265;28;20194;-39
2021/12/14 07:35:27;;;;;;;23.13;15.70;;;8.00;99.90;;;;;;5072502;28;20213;-44
2021/12/14 07:37:58;;;;;;;23.77;16.43;;;8.00;99.90;;;;;;5050509;28;20276;-39
2021/12/14 07:40:33;;;;;;;25.93;16.37;;;8.00;99.90;;;;;;5068411;28;20222;-40
2021/12/14 07:43:14;;;;;;;25.83;16.20;;;8.00;99.90;;;;;;5060377;28;20214;-40
2021/12/14 07:45:44;;;;;;;26.03;16.77;;;8.00;99.90;;;;;;5069183;28;20192;-42
2021/12/14 07:48:11;;;;;;;27.17;17.33;;;8.00;99.90;;;;;;5067225;28;20217;-40
2021/12/14 07:50:41;;;;;;;27.13;16.97;;;8.00;99.90;;;;;;5074667;28;20221;-39
2021/12/14 07:53:08;;;;;;;27.40;16.93;;;8.00;99.90;;;;;;5060525;28;20210;-40
2021/12/14 07:55:44;;;;;;;26.50;16.23;;;8.00;99.90;;;;;;5058969;28;20211;-39
2021/12/14 07:58:12;;;;;;;29.17;17.63;;;8.00;99.90;;;;;;5060744;28;20213;-39
2021/12/14 08:00:42;;;;;;;28.70;17.30;;;8.00;99.90;;;;;;5068955;28;20981;-42
2021/12/14 08:03:11;;;;;;;23.50;15.37;;;8.00;99.90;;;;;;5063435;28;20727;-40
2021/12/14 08:05:42;;;;;;;29.10;17.23;;;8.00;99.90;;;;;;5076722;28;20186;-40
2021/12/14 08:08:16;;;;;;;29.60;17.13;;;8.00;99.90;;;;;;5059069;28;20578;-40
2021/12/14 08:10:48;;;;;;;26.63;16.97;;;8.00;99.90;;;;;;5059630;28;20214;-40
2021/12/14 08:13:17;;;;;;;28.13;18.43;;;8.00;99.90;;;;;;5064742;28;20259;-41
2021/12/14 08:15:49;;;;;;;34.53;18.20;;;8.00;99.90;;;;;;5071403;28;20562;-40
2021/12/14 08:18:20;;;;;;;39.60;19.77;;;8.00;99.90;;;;;;5063865;28;20205;-41
2021/12/14 08:20:52;;;;;;;30.07;17.93;;;8.00;99.90;;;;;;5062832;28;20222;-41
2021/12/14 08:23:22;;;;;;;32.87;19.30;;;8.00;99.90;;;;;;5056976;28;20297;-40
2021/12/14 08:25:50;;;;;;;30.30;19.97;;;8.00;99.90;;;;;;5063163;28;20213;-41
2021/12/14 08:28:21;;;;;;;29.23;18.43;;;8.00;99.90;;;;;;5068232;28;20213;-42
2021/12/14 08:30:56;;;;;;;33.90;19.63;;;8.00;99.90;;;;;;5058996;28;20560;-39
2021/12/14 08:33:26;;;;;;;31.60;20.27;;;8.00;99.90;;;;;;5062470;28;20206;-40
2021/12/14 08:35:56;;;;;;;36.30;19.80;;;8.00;99.90;;;;;;5068455;28;20615;-39
2021/12/14 08:38:23;;;;;;;31.50;19.33;;;8.00;99.90;;;;;;5054386;28;20658;-41
2021/12/14 08:40:53;;;;;;;32.33;19.00;;;8.00;99.90;;;;;;5063418;28;20217;-40
2021/12/14 08:43:26;;;;;;;30.30;19.07;;;8.00;99.90;;;;;;5064441;28;20718;-41
2021/12/14 08:45:58;;;;;;;28.27;19.00;;;8.00;99.90;;;;;;5067035;28;20252;-40
2021/12/14 08:48:34;;;;;;;30.70;19.67;;;8.00;99.90;;;;;;5062075;28;20190;-41
2021/12/14 08:51:12;;;;;;;37.03;19.90;;;8.00;99.90;;;;;;5067550;28;20222;-40
2021/12/14 08:53:41;;;;;;;29.43;18.03;;;8.00;99.90;;;;;;5069811;28;20882;-40
2021/12/14 08:56:11;;;;;;;30.83;19.50;;;8.00;99.90;;;;;;5066779;28;20205;-39
2021/12/14 08:58:38;;;;;;;32.90;19.70;;;8.00;99.90;;;;;;5073446;28;20277;-40
2021/12/14 09:01:13;;;;;;;28.10;18.20;;;8.00;99.90;;;;;;5076994;28;20218;-41
2021/12/14 09:03:48;;;;;;;31.90;19.43;;;8.00;99.90;;;;;;5064942;28;20201;-42
2021/12/14 09:06:18;;;;;;;30.97;19.03;;;8.00;99.90;;;;;;5064977;28;20197;-40
2021/12/14 09:08:48;;;;;;;32.67;20.77;;;8.00;99.90;;;;;;5064700;28;20678;-39
2021/12/14 09:11:17;;;;;;;38.00;19.63;;;8.00;99.90;;;;;;5060126;28;20201;-40
2021/12/14 09:13:45;;;;;;;33.47;19.57;;;8.00;99.90;;;;;;5067646;28;20206;-39
2021/12/14 09:16:15;;;;;;;37.57;20.10;;;8.00;99.90;;;;;;5072995;28;20199;-42
2021/12/14 09:18:45;;;;;;;38.33;19.97;;;8.00;99.90;;;;;;5059055;28;20201;-41
2021/12/14 09:21:17;;;;;;;30.73;18.53;;;8.00;99.90;;;;;;5071291;28;20218;-41
2021/12/14 09:23:48;;;;;;;30.80;18.33;;;8.00;99.90;;;;;;5067632;28;20651;-40
2021/12/14 09:26:20;;;;;;;32.07;19.83;;;8.00;99.90;;;;;;5056155;28;20206;-39
2021/12/14 09:28:48;;;;;;;36.70;20.60;;;8.00;99.90;;;;;;5072126;28;20198;-40
2021/12/14 09:31:19;;;;;;;34.50;19.33;;;8.00;99.90;;;;;;5073284;28;20202;-40
2021/12/14 09:33:48;;;;;;;36.83;21.30;;;8.00;99.90;;;;;;5063448;28;20202;-40
2021/12/14 09:36:15;;;;;;;34.80;19.77;;;8.10;99.90;;;;;;5066817;28;20206;-41
2021/12/14 09:38:45;;;;;;;30.30;19.80;;;8.10;99.90;;;;;;5062081;28;20271;-40
2021/12/14 09:41:14;;;;;;;35.30;20.63;;;8.10;99.90;;;;;;5058395;28;20321;-43
2021/12/14 09:43:42;;;;;;;39.60;20.03;;;8.10;99.90;;;;;;5065480;28;20197;-41
2021/12/14 09:46:10;;;;;;;33.93;19.07;;;8.20;99.90;;;;;;5068123;28;20300;-41
2021/12/14 09:48:40;;;;;;;37.67;19.73;;;8.20;99.90;;;;;;5073308;28;20193;-40
2021/12/14 09:51:12;;;;;;;34.60;19.57;;;8.20;99.90;;;;;;5063849;28;20201;-44
2021/12/14 09:53:46;;;;;;;37.37;20.50;;;8.20;99.90;;;;;;5060502;28;20199;-40
2021/12/14 09:56:16;;;;;;;32.60;19.23;;;8.20;99.90;;;;;;5054848;28;20726;-43
2021/12/14 09:58:46;;;;;;;31.57;18.10;;;8.20;99.90;;;;;;5067566;28;20206;-40
2021/12/14 10:01:18;;;;;;;36.77;20.63;;;8.20;99.90;;;;;;5066665;28;20221;-41
2021/12/14 10:03:48;;;;;;;36.10;20.53;;;8.20;99.90;;;;;;5064040;28;20202;-41
2021/12/14 10:06:22;;;;;;;34.97;20.47;;;8.20;99.90;;;;;;5065838;28;20213;-40
2021/12/14 10:08:52;;;;;;;34.17;20.50;;;8.20;99.90;;;;;;5075623;28;20205;-41
2021/12/14 10:11:27;;;;;;;39.27;20.80;;;8.20;99.90;;;;;;5056639;28;20223;-40
2021/12/14 10:13:57;;;;;;;36.83;20.83;;;8.30;99.90;;;;;;5072210;28;20538;-41
2021/12/14 10:16:25;;;;;;;38.37;20.87;;;8.30;99.90;;;;;;5054654;28;20203;-40
2021/12/14 10:18:56;;;;;;;36.80;19.67;;;8.30;99.90;;;;;;5071668;28;20202;-42
2021/12/14 10:21:29;;;;;;;38.13;20.33;;;8.30;99.90;;;;;;5068960;28;20763;-40
2021/12/14 10:23:57;;;;;;;44.83;22.00;;;8.30;99.90;;;;;;5067783;28;20217;-42
2021/12/14 10:26:25;;;;;;;38.50;21.10;;;8.30;99.90;;;;;;5063429;28;20213;-40
2021/12/14 10:28:56;;;;;;;39.07;21.40;;;8.30;99.90;;;;;;5078555;28;20652;-40
2021/12/14 10:31:28;;;;;;;35.87;19.87;;;8.30;99.90;;;;;;5057205;28;20214;-42
2021/12/14 10:33:56;;;;;;;39.10;19.53;;;8.30;99.90;;;;;;5067748;28;20203;-41
2021/12/14 10:36:31;;;;;;;35.83;20.77;;;8.30;99.90;;;;;;5060281;28;20201;-44
2021/12/14 10:39:18;;;;;;;38.70;20.33;;;8.30;99.90;;;;;;5074961;28;20242;-43
2021/12/14 10:44:37;;;;;;;33.10;19.03;;;8.30;99.90;;;;;;5061931;28;20260;-41
2021/12/14 10:47:05;;;;;;;33.87;19.97;;;8.30;99.90;;;;;;5068311;28;20582;-42
2021/12/14 10:49:32;;;;;;;38.53;20.63;;;8.30;99.90;;;;;;5050045;28;21480;-42
2021/12/14 10:52:06;;;;;;;36.93;19.93;;;8.30;99.90;;;;;;5070373;28;20573;-41
2021/12/14 10:54:34;;;;;;;40.90;20.83;;;8.30;99.90;;;;;;5064704;28;21024;-42
2021/12/14 10:57:06;;;;;;;34.53;19.97;;;8.30;99.90;;;;;;5067868;28;20251;-41
2021/12/14 10:59:36;;;;;;;38.17;20.93;;;8.30;99.90;;;;;;5067965;28;20205;-41
2021/12/14 11:02:05;;;;;;;41.57;20.60;;;8.30;99.90;;;;;;5059142;28;20211;-41
2021/12/14 11:04:39;;;;;;;32.53;18.00;;;8.40;99.90;;;;;;5066505;28;20202;-41
2021/12/14 11:07:10;;;;;;;35.63;20.73;;;8.40;99.90;;;;;;5068458;28;20198;-40
2021/12/14 11:09:41;;;;;;;38.47;21.40;;;8.40;99.90;;;;;;5067931;28;20236;-40
2021/12/14 11:12:12;;;;;;;35.27;20.07;;;8.40;99.90;;;;;;5066476;28;20202;-41
2021/12/14 11:14:39;;;;;;;37.73;19.53;;;8.40;99.90;;;;;;5064190;28;20626;-41
2021/12/14 11:19:56;;;;;;;33.57;19.27;;;8.40;99.90;;;;;;5069921;28;20229;-44
2021/12/14 11:22:32;;;;;;;36.70;19.87;;;8.40;99.90;;;;;;5066247;28;20218;-41
2021/12/14 11:25:01;;;;;;;33.80;19.70;;;8.40;99.90;;;;;;5070221;28;20233;-39
2021/12/14 11:27:34;;;;;;;41.13;18.67;;;8.40;99.90;;;;;;5068012;28;20189;-40
2021/12/14 11:30:15;;;;;;;33.63;18.87;;;8.40;99.90;;;;;;5064519;28;20225;-43
2021/12/14 11:32:43;;;;;;;32.90;19.33;;;8.40;99.90;;;;;;5067418;28;20202;-41
2021/12/14 11:35:24;;;;;;;37.37;19.73;;;8.50;99.90;;;;;;5070818;28;20271;-40
2021/12/14 11:37:55;;;;;;;32.97;19.10;;;8.50;99.90;;;;;;5068802;28;20207;-41
2021/12/14 11:40:23;;;;;;;38.00;19.57;;;8.50;99.90;;;;;;5062055;28;20311;-41
2021/12/14 11:42:50;;;;;;;35.63;20.00;;;8.50;99.90;;;;;;5065594;28;20647;-41
2021/12/14 11:45:21;;;;;;;30.67;18.10;;;8.50;99.90;;;;;;5059883;28;20203;-41
2021/12/14 11:47:49;;;;;;;38.27;18.87;;;8.50;99.90;;;;;;5071196;28;20203;-42
2021/12/14 11:50:24;;;;;;;34.77;19.97;;;8.50;99.90;;;;;;5058665;28;20229;-43
2021/12/14 11:52:56;;;;;;;38.63;20.77;;;8.50;99.90;;;;;;5064821;28;20217;-42
2021/12/14 11:55:37;;;;;;;32.67;20.03;;;8.50;99.90;;;;;;5069181;28;20200;-41
2021/12/14 11:58:26;;;;;;;33.83;19.53;;;8.50;99.90;;;;;;5075028;28;20255;-41
2021/12/14 12:00:57;;;;;;;36.60;20.07;;;8.50;99.90;;;;;;5060773;28;20594;-40
2021/12/14 12:03:31;;;;;;;32.33;17.67;;;8.50;99.90;;;;;;5059658;28;20213;-40
2021/12/14 12:06:07;;;;;;;31.60;18.33;;;8.50;99.90;;;;;;5072736;28;20206;-40
2021/12/14 12:11:30;;;;;;;32.87;18.77;;;8.50;99.90;;;;;;5061461;28;20197;-40
2021/12/14 12:13:57;;;;;;;36.40;18.67;;;8.50;99.90;;;;;;5063702;28;20290;-42
2021/12/14 12:16:27;;;;;;;32.13;18.30;;;8.50;99.90;;;;;;5061238;28;20232;-40
2021/12/14 12:19:05;;;;;;;32.13;18.43;;;8.50;99.90;;;;;;5069404;28;20245;-43
2021/12/14 12:21:34;;;;;;;33.67;19.00;;;8.50;99.90;;;;;;5066983;28;20220;-42
2021/12/14 12:24:02;;;;;;;32.30;19.60;;;8.50;99.90;;;;;;5069021;28;20264;-41
2021/12/14 12:26:30;;;;;;;32.47;18.53;;;8.50;99.90;;;;;;5061291;28;20209;-41
2021/12/14 12:29:02;;;;;;;29.23;17.43;;;8.50;99.90;;;;;;5063707;28;20305;-42
2021/12/14 12:31:33;;;;;;;30.97;18.83;;;8.50;99.90;;;;;;5068494;28;20331;-41
2021/12/14 12:34:02;;;;;;;34.80;19.70;;;8.60;99.90;;;;;;5067042;28;20206;-42
2021/12/14 12:36:34;;;;;;;31.93;17.67;;;8.60;99.90;;;;;;5056269;28;20296;-44
2021/12/14 12:39:09;;;;;;;31.33;18.07;;;8.60;99.90;;;;;;5063129;28;20220;-43
2021/12/14 12:41:43;;;;;;;26.47;16.50;;;8.60;99.90;;;;;;5064666;28;20222;-41
2021/12/14 12:44:14;;;;;;;31.17;17.27;;;8.70;99.90;;;;;;5065375;28;20248;-41
2021/12/14 12:46:43;;;;;;;26.33;15.80;;;8.70;99.90;;;;;;5059951;28;20268;-43
2021/12/14 12:49:14;;;;;;;28.50;16.30;;;8.70;99.90;;;;;;5070589;28;20218;-41
2021/12/14 12:51:49;;;;;;;30.23;15.80;;;8.70;99.90;;;;;;5067185;28;20204;-41
2021/12/14 12:54:32;;;;;;;25.07;14.63;;;8.70;99.90;;;;;;5071024;28;20202;-41
2021/12/14 12:57:36;;;;;;;22.47;14.73;;;8.70;99.90;;;;;;5060385;28;20233;-41
2021/12/14 13:00:16;;;;;;;24.70;15.50;;;8.80;99.90;;;;;;5055177;28;20233;-41
2021/12/14 13:02:48;;;;;;;23.43;13.67;;;8.80;99.90;;;;;;5060590;28;20304;-46
2021/12/14 13:05:21;;;;;;;21.73;13.47;;;8.80;99.90;;;;;;5067029;28;20195;-41
2021/12/14 13:07:53;;;;;;;20.53;13.17;;;8.80;99.90;;;;;;5060481;28;20207;-42
2021/12/14 13:10:27;;;;;;;24.37;13.83;;;8.80;99.90;;;;;;5064188;28;20207;-40
2021/12/14 13:13:01;;;;;;;18.87;12.00;;;8.80;99.90;;;;;;5066900;28;20193;-43
2021/12/14 13:15:53;;;;;;;20.97;13.67;;;8.80;99.90;;;;;;5061750;28;20206;-41
2021/12/14 13:18:52;;;;;;;23.50;12.83;;;8.80;99.90;;;;;;5052995;28;20210;-41
2021/12/14 13:21:24;;;;;;;18.53;12.47;;;8.80;99.90;;;;;;5068758;28;20214;-41
2021/12/14 13:24:00;;;;;;;18.73;12.10;;;8.80;99.90;;;;;;5054561;28;20213;-40
2021/12/14 13:26:39;;;;;;;23.90;12.50;;;8.80;99.90;;;;;;5063688;28;20230;-42
2021/12/14 13:29:30;;;;;;;21.73;13.20;;;8.80;99.90;;;;;;5066140;28;20226;-41